Time;durP1;ratioP1;P1;durP2;ratioP2;P2;SDS_P1;SDS_P2;PMS_P1;PMS_P2;Temp;Humidity;BMP_temperature;BMP_pressure;BME280_temperature;BME280_humidity;BME280_pressure;Samples;Min_cycle;Max_cycle;Signal;HPM_P1;HPM_P2
2023/07/15 00:00:12;;;;;;;5.70;3.90;;;;;;;15.73;100.00;97610.97;110213;1241;68633;-66
2023/07/15 00:03:08;;;;;;;6.10;3.80;;;;;;;15.71;100.00;97614.38;110194;1242;59701;-63
2023/07/15 00:05:39;;;;;;;5.20;3.80;;;;;;;15.68;100.00;97609.86;110185;1244;59786;-66
2023/07/15 00:08:10;;;;;;;5.60;4.20;;;;;;;15.65;100.00;97611.60;110186;1244;70618;-65
2023/07/15 00:10:46;;;;;;;5.60;3.90;;;;;;;15.62;100.00;97612.35;110163;1241;68579;-65
2023/07/15 00:13:18;;;;;;;5.70;4.30;;;;;;;15.59;100.00;97613.48;110137;1245;69445;-65
2023/07/15 00:15:53;;;;;;;5.90;3.90;;;;;;;15.55;100.00;97614.67;110211;1241;59676;-64
2023/07/15 00:18:22;;;;;;;6.50;4.50;;;;;;;15.53;100.00;97617.35;110200;1248;60062;-64
2023/07/15 00:20:52;;;;;;;6.00;4.20;;;;;;;15.50;100.00;97614.23;110249;1242;70825;-64
2023/07/15 00:23:26;;;;;;;5.90;4.30;;;;;;;15.49;100.00;97613.70;110262;1242;69204;-66
2023/07/15 00:25:57;;;;;;;5.80;4.50;;;;;;;15.46;100.00;97613.52;110192;1245;68531;-63
2023/07/15 00:28:28;;;;;;;4.70;4.20;;;;;;;15.45;100.00;97616.27;110151;1244;59722;-65
2023/07/15 00:31:01;;;;;;;4.80;3.80;;;;;;;15.44;100.00;97613.20;110139;1244;59630;-66
2023/07/15 00:33:31;;;;;;;6.90;4.30;;;;;;;15.44;100.00;97611.13;110163;1242;71397;-64
2023/07/15 00:36:02;;;;;;;5.80;4.30;;;;;;;15.42;100.00;97612.02;110148;1245;69322;-65
2023/07/15 00:38:34;;;;;;;5.00;4.00;;;;;;;15.40;100.00;97615.55;110136;1241;68133;-65
2023/07/15 00:41:12;;;;;;;5.50;4.20;;;;;;;15.37;100.00;97618.45;110187;1243;59704;-65
2023/07/15 00:44:14;;;;;;;8.20;4.80;;;;;;;15.34;100.00;97623.80;110207;1242;59763;-64
2023/07/15 00:47:03;;;;;;;6.40;4.70;;;;;;;15.31;100.00;97623.88;110142;1241;70740;-64
2023/07/15 00:49:36;;;;;;;5.40;4.50;;;;;;;15.27;100.00;97621.54;110250;1241;68715;-64
2023/07/15 00:52:14;;;;;;;5.00;3.90;;;;;;;15.24;100.00;97620.77;110145;1241;68676;-64
2023/07/15 00:54:48;;;;;;;5.50;4.40;;;;;;;15.22;100.00;97621.51;110178;1241;59690;-65
2023/07/15 00:57:20;;;;;;;5.50;4.40;;;;;;;15.19;100.00;97617.89;110112;1245;59744;-63
2023/07/15 00:59:54;;;;;;;6.50;5.00;;;;;;;15.15;100.00;97619.30;110209;1244;70923;-64
2023/07/15 01:02:25;;;;;;;6.60;4.80;;;;;;;15.11;100.00;97619.86;110115;1241;68631;-64
2023/07/15 01:04:59;;;;;;;6.20;4.40;;;;;;;15.07;100.00;97619.30;110163;1244;68526;-65
2023/07/15 01:07:30;;;;;;;6.80;4.20;;;;;;;15.04;100.00;97620.48;110135;1245;59702;-65
2023/07/15 01:10:00;;;;;;;6.80;5.00;;;;;;;15.02;100.00;97619.02;110224;1244;59761;-64
2023/07/15 01:12:30;;;;;;;6.30;4.80;;;;;;;15.02;100.00;97620.46;110110;1244;71956;-63
2023/07/15 01:15:00;;;;;;;5.80;4.10;;;;;;;15.00;100.00;97616.40;110126;1243;68499;-64
2023/07/15 01:17:33;;;;;;;5.60;4.40;;;;;;;14.97;100.00;97614.05;110172;1241;69359;-64
2023/07/15 01:20:05;;;;;;;4.50;3.90;;;;;;;14.94;100.00;97615.36;110179;1241;59747;-65
2023/07/15 01:22:37;;;;;;;4.80;3.60;;;;;;;14.92;100.00;97612.02;110178;1245;59634;-65
2023/07/15 01:25:08;;;;;;;4.70;4.00;;;;;;;14.89;100.00;97611.07;110159;1241;71410;-64
2023/07/15 01:27:39;;;;;;;5.50;4.20;;;;;;;14.86;100.00;97610.30;110140;1245;69213;-64
2023/07/15 01:30:11;;;;;;;6.10;4.60;;;;;;;14.84;100.00;97611.69;110234;1242;69135;-64
2023/07/15 01:32:41;;;;;;;6.30;4.50;;;;;;;14.82;100.00;97611.54;110290;1242;59723;-64
2023/07/15 01:35:13;;;;;;;5.50;4.10;;;;;;;14.80;100.00;97609.96;110272;1242;59747;-65
2023/07/15 01:37:43;;;;;;;7.10;4.30;;;;;;;14.78;100.00;97608.18;110321;1241;70242;-65
2023/07/15 01:40:15;;;;;;;7.10;5.00;;;;;;;14.76;100.00;97607.45;110251;1244;68768;-63
2023/07/15 01:42:47;;;;;;;5.10;4.60;;;;;;;14.72;100.00;97608.16;110130;1241;68662;-64
2023/07/15 01:45:17;;;;;;;;;;;;;;;14.68;100.00;97604.82;110191;1244;59734;-65
2023/07/15 01:47:49;;;;;;;7.20;4.60;;;;;;;14.65;100.00;97603.16;110117;1244;59709;-63
2023/07/15 01:50:20;;;;;;;6.30;4.70;;;;;;;14.64;100.00;97599.88;110253;1241;71647;-64
2023/07/15 01:52:51;;;;;;;5.60;4.60;;;;;;;14.63;100.00;97603.52;110250;1242;68634;-64
2023/07/15 01:55:21;;;;;;;4.90;4.40;;;;;;;14.61;100.00;97603.30;110120;1244;69525;-64
2023/07/15 01:57:52;;;;;;;5.60;4.60;;;;;;;14.60;100.00;97606.44;110239;1241;59771;-65
2023/07/15 02:00:24;;;;;;;5.00;4.00;;;;;;;14.57;100.00;97607.23;110137;1244;60127;-66
2023/07/15 02:02:55;;;;;;;5.60;4.50;;;;;;;14.54;100.00;97612.07;110125;1244;71347;-64
2023/07/15 02:05:25;;;;;;;5.50;4.60;;;;;;;14.52;100.00;97611.65;110129;1241;68499;-64
2023/07/15 02:07:59;;;;;;;6.00;4.80;;;;;;;14.51;100.00;97606.66;110132;1244;69096;-65
2023/07/15 02:10:31;;;;;;;5.70;5.00;;;;;;;14.48;100.00;97607.56;110119;1245;59662;-64
2023/07/15 02:13:00;;;;;;;5.70;4.20;;;;;;;14.46;100.00;97607.56;110122;1244;59724;-66
2023/07/15 02:15:31;;;;;;;6.80;4.20;;;;;;;14.44;100.00;97609.52;110211;1241;71640;-64
2023/07/15 02:18:03;;;;;;;6.00;4.70;;;;;;;14.42;100.00;97613.00;110161;1244;69260;-66
2023/07/15 02:20:37;;;;;;;7.00;5.00;;;;;;;14.38;100.00;97615.49;110184;1243;68224;-64
2023/07/15 02:23:10;;;;;;;5.60;4.70;;;;;;;14.34;100.00;97611.97;110262;1242;59741;-63
2023/07/15 02:25:44;;;;;;;6.60;5.10;;;;;;;14.33;100.00;97611.17;110141;1241;59744;-64
2023/07/15 02:28:16;;;;;;;5.60;4.70;;;;;;;14.32;100.00;97612.83;110143;1243;70730;-65
2023/07/15 02:30:47;;;;;;;5.60;4.40;;;;;;;14.30;100.00;97616.81;110232;1242;69103;-64
2023/07/15 02:33:18;;;;;;;5.70;4.50;;;;;;;14.29;100.00;97618.70;110302;1240;68335;-66
2023/07/15 02:36:04;;;;;;;5.70;4.30;;;;;;;14.27;100.00;97625.66;110290;1242;59741;-65
2023/07/15 02:38:44;;;;;;;5.00;3.80;;;;;;;14.25;100.00;97631.79;110202;1241;59728;-64
2023/07/15 02:41:15;;;;;;;6.30;4.90;;;;;;;14.25;100.00;97638.83;110276;1242;70521;-65
2023/07/15 02:43:49;;;;;;;5.90;4.70;;;;;;;14.26;100.00;97642.34;110277;1241;68486;-64
2023/07/15 02:46:20;;;;;;;7.50;4.70;;;;;;;14.26;100.00;97642.36;110259;1242;69061;-66
2023/07/15 02:48:52;;;;;;;6.70;4.80;;;;;;;14.25;100.00;97643.14;110202;1242;59747;-65
2023/07/15 02:51:25;;;;;;;6.30;4.20;;;;;;;14.24;100.00;97643.08;110242;1241;59675;-65
2023/07/15 02:54:01;;;;;;;5.80;4.50;;;;;;;14.22;100.00;97645.84;110198;1245;71371;-67
2023/07/15 02:56:33;;;;;;;6.00;3.60;;;;;;;14.21;100.00;97648.76;110245;1243;69058;-67
2023/07/15 02:59:04;;;;;;;6.10;4.60;;;;;;;14.19;100.00;97647.69;110167;1241;69182;-67
2023/07/15 03:01:35;;;;;;;5.90;4.80;;;;;;;14.21;100.00;97647.37;110323;1243;59660;-66
2023/07/15 03:04:06;;;;;;;5.50;4.10;;;;;;;14.21;100.00;97645.30;110392;1242;59694;-66
2023/07/15 03:06:38;;;;;;;5.80;4.30;;;;;;;14.20;100.00;97648.14;110169;1244;70483;-65
2023/07/15 03:09:11;;;;;;;5.80;4.40;;;;;;;14.21;100.00;97648.80;110248;1241;68565;-66
2023/07/15 03:11:41;;;;;;;5.70;4.60;;;;;;;14.20;100.00;97651.47;110183;1245;69322;-65
2023/07/15 03:14:14;;;;;;;6.80;4.70;;;;;;;14.20;100.00;97650.30;110183;1241;59732;-66
2023/07/15 03:16:45;;;;;;;5.00;4.20;;;;;;;14.21;100.00;97649.11;110168;1244;59708;-65
2023/07/15 03:19:18;;;;;;;6.10;4.50;;;;;;;14.23;100.00;97650.84;110254;1245;71050;-66
2023/07/15 03:21:50;;;;;;;4.40;3.60;;;;;;;14.26;100.00;97652.36;110180;1241;68647;-64
2023/07/15 03:24:21;;;;;;;;;;;;;;;14.31;100.00;97651.14;110182;1241;68540;-66
2023/07/15 03:26:53;;;;;;;5.50;4.70;;;;;;;14.39;100.00;97652.22;110163;1242;59747;-64
2023/07/15 03:29:23;;;;;;;7.70;4.50;;;;;;;14.43;100.00;97656.42;110236;1245;59684;-65
2023/07/15 03:31:54;;;;;;;5.30;4.80;;;;;;;14.49;100.00;97661.66;110249;1242;71345;-65
2023/07/15 03:34:26;;;;;;;5.60;4.80;;;;;;;14.54;100.00;97664.95;110251;1242;69229;-67
2023/07/15 03:36:57;;;;;;;6.60;4.70;;;;;;;14.55;100.00;97666.27;110287;1241;69097;-66
2023/07/15 03:39:28;;;;;;;5.20;4.70;;;;;;;14.58;100.00;97665.52;110137;1241;59753;-66
2023/07/15 03:41:58;;;;;;;6.00;4.00;;;;;;;14.59;100.00;97664.04;109618;1241;775789;-66
2023/07/15 03:44:31;;;;;;;6.10;4.90;;;;;;;14.56;100.00;97667.58;110109;1241;70642;-65
2023/07/15 03:47:01;;;;;;;5.30;4.60;;;;;;;14.54;100.00;97665.84;110148;1241;69980;-66
2023/07/15 03:49:32;;;;;;;4.90;4.10;;;;;;;14.57;100.00;97663.98;110123;1243;69321;-65
2023/07/15 03:52:02;;;;;;;5.10;4.30;;;;;;;14.64;100.00;97665.52;110190;1245;59737;-64
2023/07/15 03:54:33;;;;;;;5.90;4.80;;;;;;;14.68;100.00;97664.42;110149;1245;59721;-64
2023/07/15 03:57:03;;;;;;;6.20;5.00;;;;;;;14.75;100.00;97664.55;110182;1241;71218;-65
2023/07/15 03:59:34;;;;;;;5.80;4.40;;;;;;;14.84;100.00;97667.70;110187;1245;69127;-65
2023/07/15 04:02:03;;;;;;;5.10;4.30;;;;;;;14.92;100.00;97666.97;110163;1244;69283;-64
2023/07/15 04:04:34;;;;;;;5.50;4.60;;;;;;;15.00;100.00;97662.77;110155;1245;59747;-64
2023/07/15 04:07:04;;;;;;;;;;;;;;;15.10;100.00;97665.27;110181;1243;59668;-66
2023/07/15 04:09:36;;;;;;;6.50;4.80;;;;;;;15.23;100.00;97668.32;110198;1241;71257;-66
2023/07/15 04:12:06;;;;;;;5.20;4.50;;;;;;;15.34;100.00;97669.48;110024;1245;68420;-65
2023/07/15 04:14:36;;;;;;;4.50;3.80;;;;;;;15.42;100.00;97670.29;110312;1243;69116;-64
2023/07/15 04:17:07;;;;;;;6.00;4.60;;;;;;;15.50;100.00;97670.33;110224;1242;59713;-66
2023/07/15 04:19:38;;;;;;;5.80;4.50;;;;;;;15.60;100.00;97671.54;110241;1241;59721;-65
2023/07/15 04:22:08;;;;;;;7.30;5.30;;;;;;;15.72;100.00;97674.50;110183;1243;70443;-63
2023/07/15 04:24:39;;;;;;;7.30;4.80;;;;;;;15.83;100.00;97684.79;110153;1243;67432;-64
2023/07/15 04:27:08;;;;;;;7.20;4.70;;;;;;;15.91;100.00;97682.14;110180;1245;68528;-66
2023/07/15 04:29:38;;;;;;;5.90;4.70;;;;;;;16.01;100.00;97685.25;110274;1240;59750;-66
2023/07/15 04:32:08;;;;;;;4.90;4.10;;;;;;;16.15;100.00;97683.33;110248;1242;59678;-64
2023/07/15 04:34:37;;;;;;;5.10;4.00;;;;;;;16.29;100.00;97683.46;110215;1241;71396;-66
2023/07/15 04:37:07;;;;;;;6.60;3.90;;;;;;;16.44;100.00;97682.94;110205;1242;69777;-66
2023/07/15 04:39:36;;;;;;;6.30;4.70;;;;;;;16.58;100.00;97682.19;110234;1241;69022;-64
2023/07/15 04:42:05;;;;;;;6.50;4.80;;;;;;;16.71;100.00;97689.23;110208;1241;59760;-64
2023/07/15 04:44:36;;;;;;;5.40;4.00;;;;;;;16.84;100.00;97695.94;110238;1242;59670;-65
2023/07/15 04:47:05;;;;;;;5.40;4.50;;;;;;;16.93;100.00;97695.15;110226;1240;69637;-63
2023/07/15 04:49:35;;;;;;;5.60;4.50;;;;;;;17.03;100.00;97700.62;110227;1242;69694;-64
2023/07/15 04:52:06;;;;;;;6.80;4.70;;;;;;;17.14;100.00;97696.95;110231;1242;69353;-65
2023/07/15 04:54:37;;;;;;;4.90;4.40;;;;;;;17.20;100.00;97696.60;110255;1242;59744;-65
2023/07/15 04:57:08;;;;;;;6.40;4.50;;;;;;;17.30;100.00;97698.44;110294;1241;59682;-65
2023/07/15 04:59:38;;;;;;;5.20;4.40;;;;;;;17.40;100.00;97702.92;110251;1242;70653;-64
2023/07/15 05:02:08;;;;;;;6.40;4.60;;;;;;;17.52;100.00;97703.50;110286;1240;69667;-65
2023/07/15 05:04:37;;;;;;;6.20;4.60;;;;;;;17.66;100.00;97700.83;110197;1245;68532;-65
2023/07/15 05:07:07;;;;;;;;;;;;;;;17.80;100.00;97703.33;110257;1244;59815;-67
2023/07/15 05:09:37;;;;;;;5.20;4.10;;;;;;;17.95;100.00;97706.05;110197;1242;59602;-66
2023/07/15 05:12:07;;;;;;;6.00;4.20;;;;;;;18.23;100.00;97703.64;110187;1241;72006;-67
2023/07/15 05:14:37;;;;;;;4.20;3.50;;;;;;;18.59;100.00;97707.99;110281;1241;68488;-66
2023/07/15 05:17:07;;;;;;;4.80;3.50;;;;;;;19.07;100.00;97702.05;110234;1241;68642;-65
2023/07/15 05:19:37;;;;;;;5.40;3.70;;;;;;;19.60;100.00;97704.84;110246;1242;59676;-66
2023/07/15 05:22:06;;;;;;;4.60;3.30;;;;;;;20.05;100.00;97705.55;110192;1243;59707;-66
2023/07/15 05:24:35;;;;;;;;;;;;;;;20.39;98.37;97695.78;110299;1242;71786;-67
2023/07/15 05:27:05;;;;;;;4.00;3.10;;;;;;;20.80;96.27;97693.80;110246;1242;68778;-66
2023/07/15 05:29:35;;;;;;;3.70;3.10;;;;;;;21.22;92.44;97699.13;110323;1241;68712;-67
2023/07/15 05:32:05;;;;;;;;;;;;;;;21.69;90.60;97700.29;110241;1241;59817;-67
2023/07/15 05:34:34;;;;;;;3.10;2.80;;;;;;;22.04;87.41;97700.39;110215;1241;59704;-67
2023/07/15 05:37:04;;;;;;;4.50;3.30;;;;;;;22.33;88.14;97699.83;110307;1242;71989;-67
2023/07/15 05:39:34;;;;;;;3.70;3.10;;;;;;;22.38;85.31;97702.52;110232;1241;69818;-65
2023/07/15 05:42:04;;;;;;;5.90;3.80;;;;;;;22.47;84.73;97702.97;110278;1241;69688;-65
2023/07/15 05:44:33;;;;;;;3.50;3.20;;;;;;;22.49;80.72;97701.16;110269;1242;59736;-65
2023/07/15 05:47:02;;;;;;;6.10;4.10;;;;;;;22.46;82.26;97703.95;110214;1241;59779;-65
2023/07/15 05:49:31;;;;;;;;;;;;;;;22.33;81.08;97706.93;110189;1241;70565;-65
2023/07/15 05:52:00;;;;;;;4.20;3.80;;;;;;;22.33;80.73;97704.98;110217;1241;69050;-66
2023/07/15 05:54:30;;;;;;;5.40;3.50;;;;;;;22.41;81.74;97702.33;110186;1242;69875;-64
2023/07/15 05:57:00;;;;;;;4.90;3.50;;;;;;;22.45;80.37;97703.41;110167;1244;59704;-65
2023/07/15 05:59:29;;;;;;;4.60;3.30;;;;;;;22.52;80.60;97701.52;110182;1241;59696;-65
2023/07/15 06:01:58;;;;;;;3.90;3.40;;;;;;;22.57;80.09;97698.96;110303;1241;71168;-65
2023/07/15 06:04:27;;;;;;;5.20;3.80;;;;;;;22.67;79.95;97703.46;110314;1242;69127;-64
2023/07/15 06:06:57;;;;;;;4.40;3.60;;;;;;;22.64;79.92;97702.29;110273;1241;69267;-66
2023/07/15 06:09:27;;;;;;;3.50;3.10;;;;;;;22.68;79.36;97702.69;110251;1242;59691;-66
2023/07/15 06:11:56;;;;;;;4.00;3.40;;;;;;;22.58;77.91;97704.91;110448;1240;59625;-67
2023/07/15 06:14:26;;;;;;;3.90;3.30;;;;;;;22.73;78.30;97706.31;110344;1242;70815;-65
2023/07/15 06:16:55;;;;;;;;;;;;;;;22.97;78.60;97705.77;110414;1242;69289;-65
2023/07/15 06:19:24;;;;;;;4.20;3.80;;;;;;;23.17;77.11;97704.30;110164;1241;68576;-65
2023/07/15 06:21:53;;;;;;;5.30;3.60;;;;;;;23.52;76.83;97706.42;110174;1242;59690;-66
2023/07/15 06:24:23;;;;;;;3.80;3.20;;;;;;;23.81;73.65;97701.45;110322;1241;59677;-65
2023/07/15 06:26:53;;;;;;;5.20;3.70;;;;;;;24.09;72.72;97702.13;110237;1241;71388;-64
2023/07/15 06:29:24;;;;;;;4.80;3.30;;;;;;;24.56;73.80;97692.95;110175;1241;69897;-65
2023/07/15 06:31:53;;;;;;;3.50;3.10;;;;;;;25.00;70.29;97688.05;110265;1241;69848;-65
2023/07/15 06:34:23;;;;;;;6.40;3.40;;;;;;;25.36;68.56;97684.17;110261;1242;59775;-65
2023/07/15 06:36:53;;;;;;;4.40;3.20;;;;;;;25.64;65.61;97682.64;110085;1240;59708;-65
2023/07/15 06:39:24;;;;;;;4.30;3.00;;;;;;;26.06;63.78;97684.30;110184;1241;71472;-66
2023/07/15 06:41:53;;;;;;;4.30;3.10;;;;;;;26.48;65.61;97683.02;110262;1242;69262;-67
2023/07/15 06:44:24;;;;;;;3.80;3.10;;;;;;;26.85;63.97;97682.84;110232;1241;69378;-66
2023/07/15 06:46:53;;;;;;;5.00;3.10;;;;;;;27.20;60.98;97679.56;110214;1241;59776;-66
2023/07/15 06:49:23;;;;;;;3.90;2.80;;;;;;;27.32;60.21;97678.66;110218;1242;59646;-66
2023/07/15 06:51:52;;;;;;;4.50;3.00;;;;;;;27.51;58.59;97683.39;110253;1240;71505;-67
2023/07/15 06:54:23;;;;;;;3.90;2.90;;;;;;;27.38;56.82;97678.45;110146;1244;69228;-65
2023/07/15 06:56:52;;;;;;;3.30;2.80;;;;;;;27.48;56.27;97679.55;110189;1241;69616;-66
2023/07/15 06:59:21;;;;;;;4.80;2.80;;;;;;;27.57;56.46;97681.51;110013;1244;59687;-66
2023/07/15 07:01:51;;;;;;;4.10;2.90;;;;;;;27.89;54.94;97680.52;110244;1241;59663;-68
2023/07/15 07:04:20;;;;;;;3.30;2.60;;;;;;;28.10;55.19;97684.89;110196;1241;71487;-66
2023/07/15 07:06:50;;;;;;;4.10;2.90;;;;;;;28.41;54.59;97683.76;110211;1242;69541;-66
2023/07/15 07:09:20;;;;;;;3.50;2.80;;;;;;;28.66;53.99;97682.27;110223;1242;69881;-66
2023/07/15 07:11:49;;;;;;;;;;;;;;;28.86;52.82;97682.59;110181;1241;59705;-67
2023/07/15 07:14:18;;;;;;;4.60;3.00;;;;;;;28.96;51.21;97681.77;110209;1242;59661;-66
2023/07/15 07:16:47;;;;;;;;;;;;;;;28.97;51.94;97679.66;110175;1241;71459;-65
2023/07/15 07:19:16;;;;;;;2.80;2.40;;;;;;;29.10;51.71;97684.16;110228;1242;69453;-67
2023/07/15 07:21:45;;;;;;;3.40;2.90;;;;;;;29.24;50.73;97680.83;110208;1242;68886;-68
2023/07/15 07:24:15;;;;;;;5.00;3.20;;;;;;;29.46;50.97;97681.60;110232;1242;59693;-67
2023/07/15 07:26:44;;;;;;;3.00;2.50;;;;;;;29.32;49.26;97679.04;110217;1242;60108;-66
2023/07/15 07:29:13;;;;;;;3.00;2.60;;;;;;;29.48;50.71;97680.92;110247;1241;71390;-66
2023/07/15 07:31:43;;;;;;;4.00;2.90;;;;;;;29.38;49.09;97679.34;110241;1242;69810;-67
2023/07/15 07:34:11;;;;;;;4.90;3.60;;;;;;;28.85;49.97;97677.51;110178;1242;69898;-66
2023/07/15 07:36:41;;;;;;;5.10;3.10;;;;;;;29.12;50.06;97677.64;110219;1240;59672;-66
2023/07/15 07:39:09;;;;;;;;;;;;;;;29.49;50.07;97675.40;110221;1242;59862;-66
2023/07/15 07:41:40;;;;;;;2.70;2.20;;;;;;;29.83;48.15;97675.93;110174;1241;71995;-66
2023/07/15 07:44:09;;;;;;;3.90;2.90;;;;;;;30.07;47.99;97673.70;110206;1242;70221;-64
2023/07/15 07:46:39;;;;;;;4.50;2.80;;;;;;;30.22;47.49;97673.80;110211;1242;69454;-65
2023/07/15 07:49:08;;;;;;;3.40;2.70;;;;;;;30.56;46.72;97672.88;110222;1241;60140;-65
2023/07/15 07:51:37;;;;;;;3.70;2.90;;;;;;;30.74;46.31;97671.11;110229;1242;59669;-67
2023/07/15 07:54:07;;;;;;;3.20;2.70;;;;;;;30.78;44.73;97673.91;110137;1244;71390;-67
2023/07/15 07:56:36;;;;;;;3.20;2.60;;;;;;;30.93;44.30;97672.86;110192;1242;69785;-67
2023/07/15 07:59:05;;;;;;;3.30;2.70;;;;;;;31.00;43.73;97673.23;110267;1242;69290;-66
2023/07/15 08:01:34;;;;;;;2.50;2.20;;;;;;;31.01;43.57;97674.05;110215;1242;59804;-67
2023/07/15 08:04:04;;;;;;;3.00;2.70;;;;;;;31.26;43.74;97671.42;110273;1242;59741;-67
2023/07/15 08:06:33;;;;;;;;;;;;;;;31.42;42.95;97668.81;110245;1242;70720;-66
2023/07/15 08:09:01;;;;;;;;;;;;;;;31.26;41.81;97662.52;110294;1241;69182;-68
2023/07/15 08:11:30;;;;;;;;;;;;;;;31.37;41.76;97664.69;110290;1242;69816;-65
2023/07/15 08:13:59;;;;;;;2.50;2.20;;;;;;;31.76;42.10;97666.45;110212;1241;60070;-64
2023/07/15 08:16:31;;;;;;;3.40;2.30;;;;;;;32.07;42.00;97662.56;110250;1241;59749;-66
2023/07/15 08:19:02;;;;;;;3.20;2.30;;;;;;;32.02;40.96;97665.77;110270;1242;71397;-65
2023/07/15 08:21:32;;;;;;;2.70;2.30;;;;;;;32.25;40.60;97664.02;110199;1242;70092;-65
2023/07/15 08:24:02;;;;;;;2.60;2.10;;;;;;;32.52;39.29;97668.88;110151;1244;68527;-66
2023/07/15 08:26:31;;;;;;;2.40;2.00;;;;;;;32.50;40.45;97669.60;110226;1242;59654;-65
2023/07/15 08:29:02;;;;;;;2.60;2.20;;;;;;;32.55;38.38;97660.42;110213;1242;59666;-65
2023/07/15 08:31:31;;;;;;;3.50;2.00;;;;;;;32.66;38.16;97660.98;110272;1242;71958;-66
2023/07/15 08:34:03;;;;;;;2.80;2.10;;;;;;;32.76;37.92;97659.41;110283;1242;69189;-66
2023/07/15 08:36:32;;;;;;;2.70;2.30;;;;;;;32.93;37.41;97655.66;110235;1242;69750;-66
2023/07/15 08:39:01;;;;;;;3.50;2.20;;;;;;;32.61;37.05;97665.02;110213;1241;59742;-66
2023/07/15 08:41:31;;;;;;;2.70;2.40;;;;;;;32.72;37.55;97660.70;110149;1242;59644;-67
2023/07/15 08:44:00;;;;;;;2.50;2.20;;;;;;;32.27;36.39;97662.17;110071;1244;71420;-66
2023/07/15 08:46:31;;;;;;;3.20;1.60;;;;;;;32.48;36.81;97659.61;110048;1244;70087;-66
2023/07/15 08:49:00;;;;;;;2.40;2.00;;;;;;;32.16;35.87;97657.54;110123;1244;68494;-66
2023/07/15 08:51:32;;;;;;;2.50;1.80;;;;;;;31.79;36.44;97658.67;110142;1244;59700;-67
2023/07/15 08:54:03;;;;;;;2.30;2.10;;;;;;;32.31;36.42;97665.76;110108;1244;59701;-66
2023/07/15 08:56:36;;;;;;;2.90;1.90;;;;;;;32.66;35.28;97662.94;110134;1245;70769;-66
2023/07/15 08:59:06;;;;;;;2.70;2.40;;;;;;;32.83;36.64;97662.01;110030;1244;69799;-66
2023/07/15 09:01:35;;;;;;;3.60;2.10;;;;;;;32.77;36.06;97656.44;110082;1244;69313;-67
2023/07/15 09:04:05;;;;;;;2.60;2.10;;;;;;;32.89;35.79;97649.60;110251;1245;59692;-67
2023/07/15 09:06:35;;;;;;;3.20;2.20;;;;;;;32.76;33.64;97644.67;110006;1244;59636;-66
2023/07/15 09:09:06;;;;;;;4.00;2.00;;;;;;;32.67;34.60;97646.23;110011;1244;72077;-66
2023/07/15 09:11:42;;;;;;;3.00;2.10;;;;;;;32.67;34.28;97651.84;109991;1244;69671;-66
2023/07/15 09:14:15;;;;;;;2.70;1.80;;;;;;;33.11;35.41;97651.75;109917;1244;69276;-66
2023/07/15 09:16:44;;;;;;;3.30;2.30;;;;;;;33.68;33.83;97649.44;109824;1246;59894;-67
2023/07/15 09:19:14;;;;;;;2.80;2.00;;;;;;;33.74;33.77;97649.63;110034;1244;59701;-67
2023/07/15 09:21:54;;;;;;;2.60;2.10;;;;;;;34.01;33.49;97649.50;110039;1242;71373;-67
2023/07/15 09:24:23;;;;;;;2.30;1.90;;;;;;;33.87;32.72;97645.42;110132;1241;69407;-67
2023/07/15 09:26:54;;;;;;;2.60;1.90;;;;;;;34.23;33.49;97646.88;110142;1243;69597;-67
2023/07/15 09:29:23;;;;;;;2.60;2.10;;;;;;;34.30;33.05;97646.02;110095;1244;59639;-67
2023/07/15 09:31:52;;;;;;;2.10;1.70;;;;;;;33.80;32.94;97639.29;109975;1243;59683;-67
2023/07/15 09:34:24;;;;;;;2.60;2.00;;;;;;;34.29;33.11;97634.19;110002;1244;70924;-68
2023/07/15 09:36:54;;;;;;;2.60;2.30;;;;;;;34.50;32.37;97639.37;110225;1244;69928;-66
2023/07/15 09:39:23;;;;;;;2.70;1.90;;;;;;;34.44;33.04;97638.34;110038;1244;69694;-66
2023/07/15 09:42:07;;;;;;;2.80;2.00;;;;;;;34.58;32.59;97637.27;110255;1244;60147;-67
2023/07/15 09:44:35;;;;;;;2.70;1.90;;;;;;;34.68;31.91;97631.09;110341;1241;59674;-65
2023/07/15 09:47:06;;;;;;;2.90;2.30;;;;;;;34.91;32.53;97629.94;110240;1242;71910;-67
2023/07/15 09:49:36;;;;;;;2.40;2.00;;;;;;;34.96;31.87;97634.70;110265;1244;69076;-66
2023/07/15 09:52:06;;;;;;;2.40;2.00;;;;;;;35.11;31.66;97634.20;110163;1244;69915;-66
2023/07/15 09:54:35;;;;;;;2.60;2.20;;;;;;;34.97;31.72;97630.90;110308;1242;60126;-66
2023/07/15 09:57:15;;;;;;;2.60;2.20;;;;;;;35.01;32.03;97630.11;110228;1241;59592;-66
2023/07/15 09:59:48;;;;;;;2.30;2.10;;;;;;;34.62;33.09;97629.48;110219;1242;71417;-66
2023/07/15 10:02:40;;;;;;;3.20;2.00;;;;;;;34.24;34.56;97624.48;110223;1241;69821;-66
2023/07/15 10:05:13;;;;;;;2.00;1.80;;;;;;;34.74;32.27;97620.11;110234;1243;69089;-67
2023/07/15 10:07:42;;;;;;;2.80;1.90;;;;;;;34.73;33.14;97617.81;110216;1242;59672;-66
2023/07/15 10:10:11;;;;;;;4.70;2.40;;;;;;;34.55;33.76;97618.18;110202;1241;59747;-66
2023/07/15 10:12:41;;;;;;;2.30;2.10;;;;;;;34.64;32.71;97616.23;110245;1242;72787;-66
2023/07/15 10:15:11;;;;;;;3.00;2.00;;;;;;;35.18;32.55;97611.46;110219;1240;69283;-66
2023/07/15 10:17:39;;;;;;;2.20;1.90;;;;;;;35.13;32.07;97610.73;110206;1242;69850;-66
2023/07/15 10:20:10;;;;;;;3.00;2.10;;;;;;;35.21;31.72;97617.13;110213;1240;59740;-66
2023/07/15 10:22:40;;;;;;;2.90;2.40;;;;;;;34.98;31.68;97615.82;110212;1242;59730;-66
2023/07/15 10:25:11;;;;;;;2.30;2.00;;;;;;;34.71;32.44;97613.25;110248;1242;70488;-67
2023/07/15 10:27:40;;;;;;;3.10;2.30;;;;;;;34.68;32.17;97616.48;110223;1242;69773;-68
2023/07/15 10:30:17;;;;;;;2.70;1.90;;;;;;;34.57;32.27;97614.52;110191;1243;69915;-66
2023/07/15 10:32:58;;;;;;;4.10;2.50;;;;;;;34.51;32.89;97610.51;110249;1242;59786;-66
2023/07/15 10:35:29;;;;;;;3.20;2.70;;;;;;;34.22;33.49;97615.14;110246;1242;59669;-66
2023/07/15 10:38:23;;;;;;;2.50;2.30;;;;;;;33.82;32.81;97613.70;110231;1242;71989;-66
2023/07/15 10:40:56;;;;;;;4.30;2.30;;;;;;;33.62;33.96;97607.92;110294;1242;69809;-68
2023/07/15 10:43:34;;;;;;;3.20;2.30;;;;;;;33.47;34.30;97606.77;110189;1242;69881;-66
2023/07/15 10:46:12;;;;;;;2.90;2.60;;;;;;;33.64;34.28;97606.59;110257;1241;59763;-68
2023/07/15 10:48:42;;;;;;;2.90;2.40;;;;;;;33.71;35.42;97605.73;110229;1242;59611;-66
2023/07/15 10:51:12;;;;;;;4.20;2.70;;;;;;;33.69;34.35;97603.73;110144;1240;71350;-65
2023/07/15 10:53:41;;;;;;;2.80;2.10;;;;;;;33.47;34.30;97602.65;110224;1240;69249;-65
2023/07/15 10:56:12;;;;;;;3.80;2.30;;;;;;;33.25;34.22;97603.52;110235;1242;69899;-66
2023/07/15 10:58:41;;;;;;;2.60;2.00;;;;;;;33.14;34.39;97598.13;110242;1240;60103;-66
2023/07/15 11:01:11;;;;;;;;;;;;;;;33.03;34.51;97597.27;110230;1242;59666;-66
2023/07/15 11:03:42;;;;;;;3.70;2.70;;;;;;;33.08;35.03;97594.36;110168;1241;71971;-65
2023/07/15 11:06:12;;;;;;;2.60;2.40;;;;;;;33.02;34.48;97591.48;110244;1242;68318;-66
2023/07/15 11:08:44;;;;;;;2.80;2.20;;;;;;;32.83;34.79;97590.65;110202;1242;69859;-66
2023/07/15 11:14:45;;;;;;;2.80;2.30;;;;;;;32.61;36.09;97588.19;110189;1242;59686;-65
2023/07/15 11:17:17;;;;;;;3.30;2.40;;;;;;;32.62;35.78;97590.29;110274;1240;70670;-66
2023/07/15 11:19:48;;;;;;;3.50;2.60;;;;;;;32.73;34.46;97584.66;110222;1242;69302;-64
2023/07/15 11:22:17;;;;;;;2.90;2.60;;;;;;;32.65;35.04;97581.73;110165;1241;69915;-66
2023/07/15 11:24:49;;;;;;;3.40;2.60;;;;;;;32.88;34.08;97582.66;110197;1240;59700;-66
2023/07/15 11:27:18;;;;;;;3.70;2.60;;;;;;;32.56;34.29;97580.48;110207;1242;59703;-67
2023/07/15 11:29:57;;;;;;;3.20;2.30;;;;;;;32.40;34.60;97572.11;110241;1242;71411;-66
2023/07/15 11:32:29;;;;;;;3.40;2.20;;;;;;;32.61;35.17;97575.99;110245;1242;70225;-65
2023/07/15 11:35:10;;;;;;;2.60;2.30;;;;;;;32.83;34.68;97571.01;110177;1241;69890;-67
2023/07/15 11:37:43;;;;;;;2.50;2.20;;;;;;;33.32;33.98;97573.48;110113;1242;59705;-65
2023/07/15 11:40:18;;;;;;;3.70;2.50;;;;;;;33.27;35.77;97571.42;110195;1242;59731;-65
2023/07/15 11:42:51;;;;;;;3.20;2.70;;;;;;;33.29;36.99;97569.55;110164;1245;71978;-66
2023/07/15 11:45:22;;;;;;;2.80;2.10;;;;;;;33.67;36.63;97566.41;110237;1240;69489;-66